Tiempo atmosférico en la estación meteorológica de Prat de Lluçanès, Barcelona (700 m.)



Fecha
DESCASC
Temp. máxima en grados centígrados (hora)
DESCASC
Temp. mínima en grados centígrados (hora)
DESCASC
Temp. media en grados centígrados
DESCASC
Racha de viento máxima en m/sg (hora)
DESCASC
Velocidad máxima media en intervalos de 10 minutos(hora)
DESCASC
Precipitaciones diarias en mm
DESCASC
Precipitaciones de 00:00 a 06:00 en mm
DESCASC
Precipitaciones de 06:00 a 12:00 en mm
DESCASC
Precipitaciones de 12:00 a 18:00 en mm
DESCASC
Precipitaciones de 18:00 a 24:00 en mm
DESCASC

Gráficas

Temp. máximas Temp. mínimas Temp. medias Precipitaciones Rachas de viento máximas Velocidades máximas media en intervalos de 10 minutos

Datos horarios

Fecha y hora oficial Temperatura (ºC) Velocidad del viento (km/h) Dirección del viento Racha (km/h) Dirección de racha Precipitación (mm) Presión (hPa) Tendencia (hPa) Humedad (%)
2019-05-23 23:00:00 -- -- -- -- -- -- -- -- --
2019-05-23 22:00:00 -- -- -- -- -- -- -- -- --
2019-05-23 21:00:00 -- -- -- -- -- -- -- -- --
2019-05-23 20:00:00 -- -- -- -- -- -- -- -- --
2019-05-23 19:00:00 -- -- -- -- -- -- -- -- --
2019-05-23 18:00:00 -- -- -- -- -- -- -- -- --
2019-05-23 17:00:00 -- -- -- -- -- -- -- -- --
2019-05-23 16:00:00 25.5 5 Sudeste 17 Sudoeste 0 -- -- 33
2019-05-23 15:00:00 24.8 5 Sur 15 Sur 0 -- -- 36
2019-05-23 14:00:00 23.5 8 Sudoeste 21 Sur 0 -- -- 38
2019-05-23 13:00:00 22.8 5 Sur 18 Sur 0 -- -- 43
2019-05-23 12:00:00 21 6 Sur 14 Sudoeste 0 -- -- 47
2019-05-23 11:00:00 19.6 3 Sur 10 Sudoeste 0 -- -- 50
2019-05-23 10:00:00 18.1 5 Este 9 Este 0 -- -- 59
2019-05-23 09:00:00 16.7 3 Sudeste 6 Nordeste 0 -- -- 68
2019-05-23 08:00:00 11.4 2 Noroeste 5 Norte 0 -- -- 99
2019-05-23 07:00:00 7.4 4 Norte 6 Noroeste 0 -- -- 97
2019-05-23 06:00:00 7.2 5 Noroeste 6 Noroeste 0 -- -- 96
2019-05-23 05:00:00 7.6 4 Noroeste 7 Noroeste 0 -- -- 96
2019-05-23 04:00:00 8.3 3 Noroeste 7 Noroeste 0 -- -- 96
2019-05-23 03:00:00 8.3 5 Noroeste 7 Noroeste 0 -- -- 94
2019-05-23 02:00:00 8.9 3 Noroeste 7 Noroeste 0 -- -- 93
2019-05-23 01:00:00 9.4 4 Noroeste 6 Noroeste 0 -- -- 92
2019-05-23 00:00:00 10.4 4 Norte 6 Noroeste 0 -- -- 91
2019-05-22 23:00:00 11.4 4 Noroeste 6 Noroeste 0 -- -- 87
2019-05-22 22:00:00 14.5 0 Calma 4 Sudoeste 0 -- -- 78
2019-05-22 21:00:00 18.2 2 Sur 16 Sur 0 -- -- 62
2019-05-22 20:00:00 21 5 Sur 17 Sudoeste 0 -- -- 49
2019-05-22 19:00:00 21 5 Sur 14 Sur 0 -- -- 49
2019-05-22 18:00:00 22 7 Sur 18 Sudoeste 0 -- -- 48
2019-05-22 17:00:00 23.6 8 Oeste 18 Sur 0 -- -- 36
2019-05-22 16:00:00 22 5 Sur 16 Sudoeste 0 -- -- 37
2019-05-22 15:00:00 21.7 4 Sudoeste 18 Sudoeste 0 -- -- 37
2019-05-22 14:00:00 20.6 9 Sudoeste 20 Sur 0 -- -- 47
2019-05-22 13:00:00 20.9 4 Nordeste 12 Nordeste 0 -- -- 42
2019-05-22 12:00:00 19.6 3 Sudeste 13 Este 0 -- -- 49
2019-05-22 11:00:00 18.3 4 Nordeste 11 Este 0 -- -- 48
2019-05-22 10:00:00 17.3 5 Este 10 Nordeste 0 -- -- 52
2019-05-22 09:00:00 15.3 6 Nordeste 12 Nordeste 0 -- -- 62
2019-05-22 08:00:00 10.2 2 Norte 6 Noroeste 0 -- -- 92
2019-05-22 07:00:00 6.9 4 Noroeste 6 Noroeste 0 -- -- 96
2019-05-22 06:00:00 7.1 4 Noroeste 7 Noroeste 0 -- -- 96
2019-05-22 05:00:00 7.5 3 Noroeste 6 Sudoeste 0 -- -- 94
2019-05-22 04:00:00 7.2 3 Norte 6 Noroeste 0 -- -- 95
2019-05-22 03:00:00 7.1 4 Norte 6 Noroeste 0 -- -- 94
2019-05-22 02:00:00 7.9 3 Noroeste 6 Noroeste 0 -- -- 94
2019-05-22 01:00:00 9.1 3 Noroeste 7 Noroeste 0 -- -- 92
2019-05-22 00:00:00 9.8 3 Norte 5 Noroeste 0 -- -- 90
2019-05-21 23:00:00 12.7 4 Noroeste 7 Norte 0 -- -- 81
2019-05-21 22:00:00 14.6 3 Nordeste 11 Nordeste 0 -- -- 71
2019-05-21 21:00:00 15.4 4 Este 16 Este 0 -- -- 68
2019-05-21 20:00:00 15.8 9 Este 21 Nordeste 0 -- -- 65
2019-05-21 19:00:00 16.6 8 Este 27 Este 0 -- -- 61
2019-05-21 18:00:00 17.1 12 Este 27 Nordeste 0 -- -- 57
2019-05-21 17:00:00 17.5 13 Este 26 Este 0 -- -- 54
2019-05-21 16:00:00 19.9 8 Nordeste 25 Oeste 0 -- -- 46
2019-05-21 15:00:00 21.1 11 Sur 27 Sur 0 -- -- 36
2019-05-21 14:00:00 19.8 11 Oeste 25 Sudoeste 0 -- -- 44
2019-05-21 13:00:00 18.7 9 Oeste 19 Sudoeste 0 -- -- 48
2019-05-21 12:00:00 17.9 4 Sur 12 Sur 0 -- -- 53
2019-05-21 11:00:00 16.1 4 Sudoeste 12 Este 0 -- -- 60
2019-05-21 10:00:00 15.1 3 Sur 8 Este 0 -- -- 58
2019-05-21 09:00:00 13.6 4 Nordeste 10 Nordeste 0 -- -- 69
2019-05-21 08:00:00 8.6 0 Calma 6 Noroeste 0 -- -- 100
2019-05-21 07:00:00 4.9 4 Noroeste 6 Noroeste 0 -- -- 98
2019-05-21 06:00:00 5.1 4 Noroeste 6 Norte 0 -- -- 97
2019-05-21 05:00:00 5.6 5 Noroeste 7 Noroeste 0 -- -- 97
2019-05-21 04:00:00 6.4 4 Noroeste 6 Noroeste 0 -- -- 95
2019-05-21 03:00:00 7.8 4 Noroeste 6 Noroeste 0 -- -- 93
2019-05-21 02:00:00 9.7 3 Noroeste 6 Noroeste 0 -- -- 93
2019-05-21 01:00:00 10.6 0 Calma 5 Noroeste 0 -- -- 91
2019-05-21 00:00:00 10.3 3 Noroeste 6 Oeste 0 -- -- 92
2019-05-20 23:00:00 11.3 3 Norte 8 Nordeste 0 -- -- 85
2019-05-20 22:00:00 11.6 3 Este 13 Nordeste 0 -- -- 83
2019-05-20 21:00:00 12.7 8 Este 26 Este 0 -- -- 80
2019-05-20 20:00:00 14.3 12 Este 26 Este 0 -- -- 73
2019-05-20 19:00:00 15.2 10 Nordeste 24 Nordeste 0 -- -- 65
2019-05-20 18:00:00 18.1 3 Sudeste 14 Sudoeste 0 -- -- 52
2019-05-20 17:00:00 17.8 8 Sudoeste 19 Sudoeste 0 -- -- 51
2019-05-20 16:00:00 18.2 6 Sur 24 Sudoeste 0 -- -- 50
2019-05-20 15:00:00 16.3 6 Oeste 15 Oeste 0 -- -- 62
2019-05-20 14:00:00 14.4 6 Sudoeste 14 Sudoeste 0 -- -- 72
2019-05-20 13:00:00 11.6 6 Oeste 13 Oeste 0 -- -- 81
2019-05-20 12:00:00 9.4 7 Noroeste 12 Oeste 0 -- -- 88
2019-05-20 11:00:00 8.9 3 Noroeste 10 Sudoeste 0 -- -- 90
2019-05-20 10:00:00 8 5 Sudoeste 15 Sudoeste 0 -- -- 92
2019-05-20 09:00:00 7.4 0 Calma 6 Este 0 -- -- 99
2019-05-20 08:00:00 6.8 2 Sur 8 Nordeste 0 -- -- 100
2019-05-20 07:00:00 6.8 2 Este 5 Sur 0 -- -- 100
2019-05-20 06:00:00 6.9 3 Sur 6 Sudoeste 0 -- -- 100
2019-05-20 05:00:00 6.8 0 Calma 5 Este 0 -- -- 100
2019-05-20 04:00:00 7.1 0 Calma 6 Sur 0 -- -- 100
2019-05-20 03:00:00 4.9 0 Calma 5 Noroeste 0 -- -- 99
2019-05-20 02:00:00 5 3 Noroeste 5 Noroeste 0 -- -- 98
2019-05-20 01:00:00 6.5 0 Calma 6 Noroeste 0 -- -- 98
2019-05-20 00:00:00 6.9 3 Noroeste 6 Noroeste 0 -- -- 98
2019-05-19 23:00:00 7.7 3 Noroeste 6 Noroeste 0 -- -- 97
2019-05-19 22:00:00 8.7 3 Noroeste 6 Oeste 0 -- -- 96
2019-05-19 21:00:00 9.4 0 Calma 5 Sur 0 -- -- 94
2019-05-19 20:00:00 9.5 4 Sur 12 Sudoeste 0 -- -- 93
2019-05-19 19:00:00 9.9 4 Sur 9 Sur 0.2 -- -- 88
2019-05-19 18:00:00 10 4 Este 20 Nordeste 7 -- -- 91
2019-05-19 17:00:00 11.8 10 Este 20 Este 0 -- -- 76
2019-05-19 16:00:00 14.9 6 Sur 17 Sudoeste 0 -- -- 58
2019-05-19 15:00:00 14.8 8 Oeste 18 Oeste 0 -- -- 61
2019-05-19 14:00:00 12.8 8 Sudoeste 13 Sudoeste 0.2 -- -- 73
2019-05-19 13:00:00 10.3 2 Sudoeste 14 Sudoeste 3.8 -- -- 85
2019-05-19 12:00:00 12.4 13 Oeste 22 Oeste 0 -- -- 76
2019-05-19 11:00:00 13.5 4 Sudeste 13 Sudeste 0 -- -- 64
2019-05-19 10:00:00 12.2 6 Este 10 Este 0 -- -- 68
2019-05-19 09:00:00 9.7 3 Este 8 Este 0 -- -- 83
2019-05-19 08:00:00 6.8 4 Sudeste 10 Noroeste 0 -- -- 95
2019-05-19 07:00:00 6.6 0 Calma 4 Noroeste 0 -- -- 96
2019-05-19 06:00:00 6.6 0 Calma 7 Sudeste 0 -- -- 95
2019-05-19 05:00:00 7.1 3 Este 6 Este 0 -- -- 92
2019-05-19 04:00:00 7.7 2 Sudeste 5 Sur 0 -- -- 91
2019-05-19 03:00:00 8.1 4 Sur 6 Este 0 -- -- 91
2019-05-19 02:00:00 7.7 3 Norte 4 Noroeste 0 -- -- 95
2019-05-19 01:00:00 6.5 0 Calma 6 Noroeste 0 -- -- 96
2019-05-19 00:00:00 7.6 0 Calma 10 Nordeste 0 -- -- 91
2019-05-18 23:00:00 8.7 6 Este 20 Sudoeste 0 -- -- 87
2019-05-18 22:00:00 9 5 Este 13 Nordeste 0 -- -- 82
2019-05-18 21:00:00 9.5 8 Nordeste 21 Este 0 -- -- 78
2019-05-18 20:00:00 10.6 12 Nordeste 23 Este 0 -- -- 71
2019-05-18 19:00:00 13.5 12 Sudoeste 24 Oeste 0 -- -- 51
2019-05-18 18:00:00 14.5 15 Oeste 31 Sudoeste 0 -- -- 45
2019-05-18 17:00:00 14.1 15 Sudoeste 33 Sudoeste 0 -- -- 46
2019-05-18 16:00:00 15.1 9 Sudoeste 26 Oeste 0 -- -- 58
2019-05-18 15:00:00 13.4 11 Oeste 22 Sudoeste 0 -- -- 68
2019-05-18 14:00:00 12.1 7 Sur 23 Sur 0 -- -- 77
2019-05-18 13:00:00 10.3 4 Sur 9 Sur 0 -- -- 87
2019-05-18 12:00:00 9.1 4 Sur 10 Sudoeste 0 -- -- 93
2019-05-18 11:00:00 8.3 5 Sudoeste 10 Sudoeste 0 -- -- 96
2019-05-18 10:00:00 8.1 3 Sur 7 Sur 0 -- -- 98
2019-05-18 09:00:00 7.5 3 Sur 8 Sur 0 -- -- 98
2019-05-18 08:00:00 7.2 2 Sudoeste 12 Oeste 0 -- -- 99
2019-05-18 07:00:00 7.3 6 Sudoeste 10 Sur 0 -- -- 99
2019-05-18 06:00:00 7.7 3 Sur 12 Sudoeste 0.2 -- -- 99
2019-05-18 05:00:00 8.4 4 Sur 8 Sudoeste 0 -- -- 98
2019-05-18 04:00:00 8.6 3 Sur 5 Sudoeste 0 -- -- 97
2019-05-18 03:00:00 8.6 2 Noroeste 6 Este 0 -- -- 96
2019-05-18 02:00:00 8.6 2 Sudeste 8 Este 0.6 -- -- 95
2019-05-18 01:00:00 8.5 4 Este 11 Nordeste 0.4 -- -- 96
2019-05-18 00:00:00 8.5 5 Nordeste 9 Nordeste 1 -- -- 95
2019-05-17 23:00:00 8.6 3 Nordeste 5 Nordeste 2.6 -- -- 94
2019-05-17 22:00:00 9.1 2 Sudeste 8 Nordeste 2 -- -- 92
2019-05-17 21:00:00 9.2 5 Este 11 Este 1.4 -- -- 90
2019-05-17 20:00:00 9.7 4 Este 13 Este 0 -- -- 88
2019-05-17 19:00:00 9.9 6 Este 13 Este 0.2 -- -- 91
2019-05-17 18:00:00 10.8 6 Este 12 Este 0.2 -- -- 84
2019-05-17 17:00:00 11.7 2 Noroeste 9 Sudeste 0 -- -- 74
2019-05-17 16:00:00 11.5 5 Este 17 Este 0 -- -- 69
2019-05-17 15:00:00 11.4 9 Este 24 Este 0 -- -- 70
2019-05-17 14:00:00 11.3 6 Este 19 Este 0 -- -- 73
2019-05-17 13:00:00 10.6 9 Nordeste 20 Este 0 -- -- 78
2019-05-17 12:00:00 9.2 12 Nordeste 21 Nordeste 0.2 -- -- 88
2019-05-17 11:00:00 7.8 8 Nordeste 17 Nordeste 0.6 -- -- 91
2019-05-17 10:00:00 7.5 9 Nordeste 19 Norte 0 -- -- 87
2019-05-17 09:00:00 6.9 8 Norte 19 Nordeste 0.4 -- -- 86
2019-05-17 08:00:00 6.9 5 Norte 15 Norte 1 -- -- 89
2019-05-17 07:00:00 8.6 5 Noroeste 15 Sur 1.4 -- -- 78
2019-05-17 06:00:00 9.5 4 Nordeste 9 Nordeste 0.2 -- -- 84
2019-05-17 05:00:00 9.6 6 Nordeste 14 Nordeste 0 -- -- 87
2019-05-17 04:00:00 9.7 8 Nordeste 15 Nordeste 0 -- -- 91
2019-05-17 03:00:00 9.8 4 Nordeste 9 Este 0 -- -- 91
2019-05-17 02:00:00 10.1 2 Sur 18 Sur 0.8 -- -- 91
2019-05-17 01:00:00 11.1 11 Sudoeste 22 Oeste 0 -- -- 81
2019-05-17 00:00:00 11.9 2 Sudoeste 6 Sur 0 -- -- 76
2019-05-16 23:00:00 12 3 Sur 15 Sudoeste 0 -- -- 84
2019-05-16 22:00:00 12.3 7 Sur 14 Sur 0 -- -- 83
2019-05-16 21:00:00 13.7 8 Sur 19 Sur 0 -- -- 79
2019-05-16 20:00:00 16.8 7 Sur 22 Sur 0 -- -- 68
2019-05-16 19:00:00 19.2 9 Sur 22 Sur 0 -- -- 58
2019-05-16 18:00:00 20.7 8 Sur 23 Sur 0 -- -- 52
2019-05-16 17:00:00 21.2 7 Sur 21 Sur 0 -- -- 49
2019-05-16 16:00:00 21.2 8 Sur 28 Sur 0 -- -- 47
2019-05-16 15:00:00 20.2 12 Sudoeste 27 Sudoeste 0 -- -- 47
2019-05-16 14:00:00 19.1 9 Sudoeste 24 Sudoeste 0 -- -- 50
2019-05-16 13:00:00 18.1 8 Sur 24 Sudoeste 0 -- -- 52
2019-05-16 12:00:00 16.6 10 Sudoeste 22 Sur 0 -- -- 58
2019-05-16 11:00:00 14.6 10 Oeste 22 Sudoeste 0 -- -- 64
2019-05-16 10:00:00 13.6 7 Sudoeste 13 Sur 0 -- -- 61
2019-05-16 09:00:00 11.3 3 Sur 4 Sudoeste 0 -- -- 68
2019-05-16 08:00:00 5.9 3 Noroeste 6 Noroeste 0 -- -- 96
2019-05-16 07:00:00 3.4 4 Noroeste 6 Noroeste 0 -- -- 93
2019-05-16 06:00:00 4 4 Noroeste 6 Noroeste 0 -- -- 91
2019-05-16 05:00:00 5.5 0 Calma 5 Oeste 0 -- -- 87
2019-05-16 04:00:00 6.3 0 Calma 5 Noroeste 0 -- -- 90
2019-05-16 03:00:00 8.9 3 Sudoeste 9 Nordeste 0 -- -- 84
2019-05-16 02:00:00 8.4 0 Calma 6 Nordeste 0 -- -- 84
2019-05-16 01:00:00 8.7 0 Calma 13 Noroeste 0 -- -- 81
2019-05-16 00:00:00 9.1 8 Noroeste 12 Noroeste 0 -- -- 80
2019-05-15 23:00:00 9 5 Oeste 10 Oeste 0 -- -- 80
2019-05-15 22:00:00 10.3 4 Sudoeste 9 Sudoeste 0 -- -- 78
2019-05-15 21:00:00 12.3 4 Sudoeste 13 Sudoeste 0 -- -- 75
2019-05-15 20:00:00 15.3 6 Sur 17 Sudoeste 0 -- -- 64
2019-05-15 19:00:00 16.7 7 Sur 21 Sudoeste 0 -- -- 61
2019-05-15 18:00:00 19.3 6 Sur 24 Sur 0 -- -- 53
2019-05-15 17:00:00 19.6 8 Sur 23 Sur 0 -- -- 51
2019-05-15 16:00:00 19.2 6 Sudeste 17 Este 0 -- -- 49
2019-05-15 15:00:00 22.5 5 Sur 17 Sur 0 -- -- 41
2019-05-15 14:00:00 21.3 6 Sur 24 Sur 0 -- -- 45
2019-05-15 13:00:00 20.1 5 Sudeste 14 Sur 0 -- -- 46
2019-05-15 12:00:00 18.7 6 Sur 18 Sur 0 -- -- 49
2019-05-15 11:00:00 17.8 6 Sur 15 Sur 0 -- -- 56
2019-05-15 10:00:00 16.6 3 Sudeste 10 Este 0 -- -- 58
2019-05-15 09:00:00 14.8 5 Este 10 Este 0 -- -- 62
2019-05-15 08:00:00 12.5 3 Este 8 Este 0 -- -- 78
2019-05-15 07:00:00 10.4 0 Calma 12 Nordeste 0 -- -- 83
2019-05-15 06:00:00 8.6 2 Norte 10 Nordeste 0 -- -- 94
2019-05-15 05:00:00 6.6 4 Norte 6 Noroeste 0 -- -- 92
2019-05-15 04:00:00 7.8 3 Noroeste 9 Nordeste 0 -- -- 93
2019-05-15 03:00:00 7.8 3 Noroeste 8 Noroeste 0 -- -- 90
2019-05-15 02:00:00 8.2 5 Noroeste 6 Noroeste 0 -- -- 91
2019-05-15 01:00:00 9.7 2 Norte 10 Nordeste 0 -- -- 88
2019-05-15 00:00:00 9 4 Noroeste 6 Noroeste 0 -- -- 87
2019-05-14 23:00:00 10.3 5 Noroeste 6 Noroeste 0 -- -- 84
2019-05-14 22:00:00 14.3 0 Calma 8 Sur 0 -- -- 71
2019-05-14 21:00:00 16.4 3 Sur 11 Sur 0 -- -- 64
2019-05-14 20:00:00 18.9 7 Sur 17 Sudoeste 0 -- -- 49
2019-05-14 19:00:00 21.6 10 Sur 21 Sudoeste 0 -- -- 41
2019-05-14 18:00:00 23.1 9 Sur 24 Oeste 0 -- -- 37
2019-05-14 17:00:00 22.6 13 Oeste 26 Sur 0 -- -- 35
2019-05-14 16:00:00 22.6 12 Sudoeste 25 Sudoeste 0 -- -- 35
2019-05-14 15:00:00 21.4 13 Sudoeste 27 Sudoeste 0 -- -- 34
2019-05-14 14:00:00 20.6 12 Sudoeste 29 Sudoeste 0 -- -- 39
2019-05-14 13:00:00 19.5 17 Sudoeste 35 Sur 0 -- -- 41
2019-05-14 12:00:00 18 12 Sudoeste 33 Sudoeste 0 -- -- 48
2019-05-14 11:00:00 16.3 11 Sudoeste 22 Sudoeste 0 -- -- 52
2019-05-14 10:00:00 15.1 4 Sur 12 Sur 0 -- -- 61
2019-05-14 09:00:00 13.1 3 Sur 8 Sur 0 -- -- 68
2019-05-14 08:00:00 7.6 0 Calma 6 Noroeste 0 -- -- 95
2019-05-14 07:00:00 3.9 5 Noroeste 7 Noroeste 0 -- -- 95
2019-05-14 06:00:00 3.8 5 Noroeste 7 Noroeste 0 -- -- 93
2019-05-14 05:00:00 4.6 3 Norte 6 Noroeste 0 -- -- 93
2019-05-14 04:00:00 4.8 5 Noroeste 7 Noroeste 0 -- -- 92
2019-05-14 03:00:00 5.5 3 Noroeste 7 Noroeste 0 -- -- 90
2019-05-14 02:00:00 6.3 3 Norte 6 Noroeste 0 -- -- 88
2019-05-14 01:00:00 6.8 4 Noroeste 7 Noroeste 0 -- -- 87
2019-05-14 00:00:00 7.8 3 Norte 7 Noroeste 0 -- -- 82
2019-05-13 23:00:00 9.3 5 Noroeste 7 Noroeste 0 -- -- 78
2019-05-13 22:00:00 12.3 4 Noroeste 11 Oeste 0 -- -- 66
2019-05-13 21:00:00 14.6 4 Oeste 16 Sur 0 -- -- 62
2019-05-13 20:00:00 18.1 6 Sur 21 Sur 0 -- -- 52
2019-05-13 19:00:00 19.5 6 Sudoeste 21 Sudoeste 0 -- -- 47
2019-05-13 18:00:00 20.5 7 Sur 21 Sur 0 -- -- 47
2019-05-13 17:00:00 21.9 5 Sur 24 Sudoeste 0 -- -- 40
2019-05-13 16:00:00 21.8 4 Este 17 Este 0 -- -- 31
2019-05-13 15:00:00 20.5 5 Nordeste 17 Sur 0 -- -- 29
2019-05-13 14:00:00 20.1 4 Sudeste 12 Sur 0 -- -- 30
2019-05-13 13:00:00 18.6 4 Sur 15 Sur 0 -- -- 32
2019-05-13 12:00:00 17 4 Sur 16 Sudoeste 0 -- -- 42
2019-05-13 11:00:00 15.5 6 Sur 14 Sudoeste 0 -- -- 50
2019-05-13 10:00:00 14.8 4 Sur 10 Este 0 -- -- 50
2019-05-13 09:00:00 13.2 4 Este 9 Este 0 -- -- 60
2019-05-13 08:00:00 8.5 3 Norte 8 Norte 0 -- -- 87
2019-05-13 07:00:00 5.5 4 Nordeste 10 Nordeste 0 -- -- 96
2019-05-13 06:00:00 4.7 2 Norte 8 Norte 0 -- -- 92
2019-05-13 05:00:00 5.2 3 Norte 11 Norte 0 -- -- 95
2019-05-13 04:00:00 5.4 4 Noroeste 8 Noroeste 0 -- -- 96
2019-05-13 03:00:00 5.3 2 Norte 9 Noroeste 0 -- -- 95
2019-05-13 02:00:00 7 3 Norte 8 Noroeste 0 -- -- 85
2019-05-13 01:00:00 7.9 3 Oeste 7 Sudoeste 0 -- -- 80
2019-05-13 00:00:00 9.6 5 Oeste 22 Oeste 0 -- -- 75
2019-05-12 23:00:00 11.9 10 Oeste 17 Oeste 0 -- -- 53
2019-05-12 22:00:00 11.7 3 Noroeste 15 Sur 0 -- -- 72
2019-05-12 21:00:00 16.9 4 Sudeste 22 Noroeste 0 -- -- 41
2019-05-12 20:00:00 19.7 8 Norte 23 Norte 0 -- -- 22
2019-05-12 19:00:00 21.6 6 Norte 27 Noroeste 0 -- -- 19
2019-05-12 18:00:00 22.9 8 Norte 24 Norte 0 -- -- 18
2019-05-12 17:00:00 23.2 8 Norte 20 Noroeste 0 -- -- 25
2019-05-12 16:00:00 22.9 7 Sur 21 Sur 0 -- -- 32
2019-05-12 15:00:00 21.5 8 Sur 31 Sudoeste 0 -- -- 35
2019-05-12 14:00:00 20.1 7 Sur 28 Sur 0 -- -- 39
2019-05-12 13:00:00 17.6 8 Sur 22 Sudoeste 0 -- -- 49
2019-05-12 12:00:00 15.5 9 Sudoeste 20 Sudoeste 0 -- -- 52
2019-05-12 11:00:00 13.4 8 Sudoeste 15 Sudoeste 0 -- -- 68
2019-05-12 10:00:00 10.1 3 Sudoeste 9 Noroeste 0 -- -- 85
2019-05-12 09:00:00 9.3 4 Noroeste 9 Sudoeste 0 -- -- 88
2019-05-12 08:00:00 9.6 3 Oeste 7 Nordeste 0 -- -- 96
2019-05-12 07:00:00 8.3 3 Norte 11 Nordeste 0 -- -- 98
2019-05-12 06:00:00 8.5 3 Norte 8 Nordeste 0 -- -- 97
2019-05-12 05:00:00 7.6 2 Norte 14 Nordeste 0 -- -- 95
2019-05-12 04:00:00 6.4 4 Nordeste 12 Nordeste 0 -- -- 96
2019-05-12 03:00:00 6.8 4 Norte 9 Noroeste 0 -- -- 87
2019-05-12 02:00:00 9.1 5 Sur 14 Nordeste 0 -- -- 93
2019-05-12 01:00:00 10.4 2 Nordeste 21 Noroeste 0 -- -- 84
2019-05-12 00:00:00 11.5 12 Noroeste 20 Noroeste 0 -- -- 48
2019-05-11 23:00:00 10.8 3 Norte 11 Noroeste 0 -- -- 91
2019-05-11 22:00:00 13.5 0 Calma 14 Este 0 -- -- 82
2019-05-11 21:00:00 15 4 Sudeste 19 Este 0 -- -- 77
2019-05-11 20:00:00 17.1 10 Este 21 Sudeste 0 -- -- 68
2019-05-11 19:00:00 19.5 9 Sur 30 Sudoeste 0 -- -- 40
2019-05-11 18:00:00 19.3 18 Sudoeste 40 Sudoeste 0 -- -- 47
2019-05-11 17:00:00 22.1 21 Sudoeste 43 Sur 0 -- -- 42
2019-05-11 16:00:00 21.6 22 Sudoeste 49 Sur 0 -- -- 51
2019-05-11 15:00:00 21.3 14 Sur 36 Sudoeste 0 -- -- 59
2019-05-11 14:00:00 18.9 17 Sudoeste 28 Sudoeste 0 -- -- 71
2019-05-11 13:00:00 17.3 15 Sur 26 Sur 0 -- -- 76
2019-05-11 12:00:00 17.2 9 Sur 17 Sudoeste 0 -- -- 73
2019-05-11 11:00:00 16.6 11 Sudoeste 19 Sudoeste 0 -- -- 70
2019-05-11 10:00:00 16 12 Oeste 16 Oeste 0 -- -- 76
2019-05-11 09:00:00 15.4 7 Oeste 13 Sudoeste 0 -- -- 82
2019-05-11 08:00:00 13 6 Oeste 11 Oeste 0 -- -- 96
2019-05-11 07:00:00 10.1 2 Noroeste 5 Norte 0 -- -- 93
2019-05-11 06:00:00 10.2 4 Noroeste 6 Noroeste 0 -- -- 94
2019-05-11 05:00:00 11 5 Noroeste 9 Norte 0 -- -- 90
2019-05-11 04:00:00 14.6 5 Nordeste 13 Nordeste 0 -- -- 80
2019-05-11 03:00:00 13.9 3 Norte 13 Nordeste 0 -- -- 84
2019-05-11 02:00:00 15 6 Nordeste 13 Nordeste 0 -- -- 81
2019-05-11 01:00:00 15.5 5 Nordeste 12 Nordeste 0 -- -- 80
2019-05-11 00:00:00 14.8 5 Nordeste 12 Este 0 -- -- 83
2019-05-10 23:00:00 13.7 4 Norte 5 Sur 0 -- -- 86
2019-05-10 22:00:00 16.7 2 Este 9 Este 0 -- -- 72
2019-05-10 21:00:00 17.5 3 Sudeste 10 Sudoeste 0 -- -- 71
2019-05-10 20:00:00 18.7 5 Sur 21 Sur 0 -- -- 66
2019-05-10 19:00:00 20.7 12 Sur 39 Sur 0 -- -- 58
2019-05-10 18:00:00 23.9 14 Sur 33 Sur 0 -- -- 50
2019-05-10 17:00:00 24.1 16 Sudoeste 35 Sur 0 -- -- 51
2019-05-10 16:00:00 23.2 18 Sudoeste 32 Oeste 0 -- -- 54
2019-05-10 15:00:00 23.2 13 Sudoeste 24 Sur 0 -- -- 50
2019-05-10 14:00:00 22.6 8 Sur 19 Oeste 0 -- -- 55
2019-05-10 13:00:00 21.5 5 Sudoeste 20 Sudoeste 0 -- -- 53
2019-05-10 12:00:00 19.5 4 Oeste 12 Sur 0 -- -- 57
2019-05-10 11:00:00 18.3 4 Sur 10 Este 0 -- -- 57
2019-05-10 10:00:00 17.3 6 Este 10 Sudeste 0 -- -- 60
2019-05-10 09:00:00 15 3 Sur 8 Sur 0 -- -- 65
2019-05-10 08:00:00 11.7 0 Calma 5 Sur 0 -- -- 77
2019-05-10 07:00:00 9.6 3 Noroeste 6 Noroeste 0 -- -- 83
2019-05-10 06:00:00 11.3 0 Calma 15 Sudoeste 0 -- -- 74
2019-05-10 05:00:00 12.3 3 Sudeste 11 Sudoeste 0 -- -- 73
2019-05-10 04:00:00 14 8 Noroeste 17 Oeste 0 -- -- 65
2019-05-10 03:00:00 13.2 4 Oeste 10 Oeste 0 -- -- 62
2019-05-10 02:00:00 13.4 2 Norte 10 Sudoeste 0 -- -- 68
2019-05-10 01:00:00 13.9 5 Oeste 11 Oeste 0 -- -- 54
2019-05-10 00:00:00 14.1 7 Oeste 17 Sudoeste 0 -- -- 53
2019-05-09 23:00:00 14 7 Sudoeste 17 Sudoeste 0 -- -- 58
2019-05-09 22:00:00 14.8 6 Sur 16 Sur 0 -- -- 55
2019-05-09 21:00:00 15.8 6 Sur 26 Sur 0 -- -- 49
2019-05-09 20:00:00 17.6 17 Sudoeste 38 Sudoeste 0 -- -- 34
2019-05-09 19:00:00 19.1 15 Sudoeste 35 Sudoeste 0 -- -- 32
2019-05-09 18:00:00 19.6 19 Sudoeste 41 Sudoeste 0 -- -- 33
2019-05-09 17:00:00 20.2 18 Sudoeste 35 Sudoeste 0 -- -- 35
2019-05-09 16:00:00 20.4 14 Sur 33 Sudoeste 0 -- -- 38
2019-05-09 15:00:00 19.4 12 Sudoeste 33 Sudoeste 0 -- -- 41
2019-05-09 14:00:00 18 12 Sur 33 Sur 0 -- -- 47
2019-05-09 13:00:00 16.8 12 Sur 27 Sudoeste 0 -- -- 47
2019-05-09 12:00:00 15.4 14 Sudoeste 31 Sudoeste 0 -- -- 49
2019-05-09 11:00:00 13.8 16 Oeste 26 Oeste 0 -- -- 57
2019-05-09 10:00:00 12.1 7 Oeste 17 Sudoeste 0 -- -- 64
2019-05-09 09:00:00 10.6 10 Sudoeste 16 Sudoeste 0 -- -- 67
2019-05-09 08:00:00 7.8 2 Sudoeste 6 Norte 0 -- -- 81
2019-05-09 07:00:00 4.9 3 Norte 7 Noroeste 0 -- -- 92
2019-05-09 06:00:00 6.6 0 Calma 8 Noroeste 0 -- -- 86
2019-05-09 05:00:00 8.1 0 Calma 6 Sudoeste 0 -- -- 78
2019-05-09 04:00:00 10.2 3 Sudoeste 10 Oeste 0 -- -- 74
2019-05-09 03:00:00 10.5 4 Sudoeste 22 Sudoeste 0 -- -- 72
2019-05-09 02:00:00 11.2 6 Oeste 15 Sudoeste 0 -- -- 78
2019-05-09 01:00:00 11.9 3 Sur 11 Sur 0 -- -- 88
2019-05-09 00:00:00 10.8 2 Oeste 7 Oeste 0 -- -- 96
2019-05-08 23:00:00 11.5 2 Norte 7 Noroeste 0 -- -- 93
2019-05-08 22:00:00 13.8 3 Noroeste 14 Noroeste 0 -- -- 84
2019-05-08 21:00:00 14.4 9 Noroeste 22 Oeste 1.6 -- -- 86
2019-05-08 20:00:00 15.7 9 Oeste 40 Sudoeste 4.4 -- -- 81
2019-05-08 19:00:00 19.2 23 Sudoeste 39 Sudoeste 0 -- -- 59
2019-05-08 18:00:00 18.9 17 Oeste 33 Oeste 0 -- -- 65
2019-05-08 17:00:00 18.9 18 Oeste 45 Sudoeste 3.4 -- -- 70
2019-05-08 16:00:00 20.9 24 Sudoeste 42 Sudoeste 0 -- -- 55
2019-05-08 15:00:00 20.8 23 Sudoeste 41 Sudoeste 0 -- -- 57
2019-05-08 14:00:00 20.5 24 Sudoeste 47 Sudoeste 0 -- -- 56
2019-05-08 13:00:00 19.3 25 Oeste 39 Oeste 0 -- -- 62
2019-05-08 12:00:00 18 18 Sudoeste 33 Oeste 0 -- -- 70
2019-05-08 11:00:00 15.7 13 Sudoeste 25 Oeste 0 -- -- 81
2019-05-08 10:00:00 13.6 9 Sur 18 Sudoeste 0 -- -- 89
2019-05-08 09:00:00 11.8 9 Sur 17 Sur 0 -- -- 96
2019-05-08 08:00:00 11.1 8 Sudoeste 15 Sudoeste 0 -- -- 98
2019-05-08 07:00:00 11 7 Sudoeste 14 Sudoeste 0 -- -- 97
2019-05-08 06:00:00 11.1 5 Sur 10 Sudoeste 0 -- -- 98
2019-05-08 05:00:00 11.1 4 Sur 9 Sudoeste 0 -- -- 98
2019-05-08 04:00:00 11.4 4 Oeste 7 Oeste 0 -- -- 95
2019-05-08 03:00:00 11.4 3 Sudoeste 7 Sudoeste 0 -- -- 93
2019-05-08 02:00:00 11.4 3 Sudoeste 7 Sur 0 -- -- 94
2019-05-08 01:00:00 11.6 4 Sur 10 Sudoeste 0 -- -- 94
2019-05-08 00:00:00 11.9 3 Sur 10 Sudoeste 0 -- -- 93
2019-05-07 23:00:00 12.1 7 Sur 13 Sur 0 -- -- 92
2019-05-07 22:00:00 12.6 6 Sudoeste 15 Sur 0 -- -- 91
2019-05-07 21:00:00 13.1 10 Sudoeste 18 Sudoeste 0 -- -- 89
2019-05-07 20:00:00 15.3 12 Sudoeste 21 Sur 0 -- -- 78
2019-05-07 19:00:00 18 12 Sur 21 Sudoeste 0 -- -- 64
2019-05-07 18:00:00 19.4 6 Sur 26 Sur 0 -- -- 62
2019-05-07 17:00:00 20.2 8 Sur 26 Sudoeste 0 -- -- 60
2019-05-07 16:00:00 21 8 Sur 24 Sudoeste 0 -- -- 55
2019-05-07 15:00:00 19.5 6 Sur 20 Sur 0 -- -- 55
2019-05-07 14:00:00 18.3 5 Sudoeste 21 Sudoeste 0 -- -- 53
2019-05-07 13:00:00 16.9 6 Sur 17 Sur 0 -- -- 58
2019-05-07 12:00:00 15 6 Sudoeste 14 Sur 0 -- -- 64
2019-05-07 11:00:00 13.1 4 Sur 12 Sur 0 -- -- 66
2019-05-07 10:00:00 12.3 3 Sur 8 Sudoeste 0 -- -- 65
2019-05-07 09:00:00 10.6 3 Sur 7 Sudoeste 0 -- -- 79
2019-05-07 08:00:00 5.5 0 Calma 6 Norte 0 -- -- 100
2019-05-07 07:00:00 2.9 4 Noroeste 6 Noroeste 0 -- -- 98
2019-05-07 06:00:00 3.1 5 Noroeste 6 Noroeste 0 -- -- 98
2019-05-07 05:00:00 3.5 4 Noroeste 7 Noroeste 0 -- -- 97
2019-05-07 04:00:00 3.9 4 Norte 6 Noroeste 0 -- -- 97
2019-05-07 03:00:00 4.7 3 Norte 5 Noroeste 0 -- -- 95
2019-05-07 02:00:00 5.6 4 Noroeste 6 Noroeste 0 -- -- 93
2019-05-07 01:00:00 7.5 3 Norte 6 Oeste 0 -- -- 90
2019-05-07 00:00:00 9.1 3 Oeste 9 Sudoeste 0 -- -- 87
2019-05-06 23:00:00 9.3 3 Oeste 6 Oeste 0 -- -- 86
2019-05-06 22:00:00 9 2 Oeste 5 Sur 0 -- -- 85
2019-05-06 21:00:00 11.9 0 Calma 12 Sudoeste 0 -- -- 73
2019-05-06 20:00:00 15.3 4 Sur 14 Sur 0 -- -- 61
2019-05-06 19:00:00 17.4 8 Sur 22 Sudoeste 0 -- -- 52
2019-05-06 18:00:00 18 12 Sur 24 Sur 0 -- -- 37
2019-05-06 17:00:00 18 14 Sudoeste 26 Sudoeste 0 -- -- 29
2019-05-06 16:00:00 17.7 9 Sur 26 Sur 0 -- -- 29
2019-05-06 15:00:00 17.1 9 Sur 23 Sur 0 -- -- 34
2019-05-06 14:00:00 15.6 8 Sur 23 Sudoeste 0 -- -- 37
2019-05-06 13:00:00 14 5 Sudoeste 20 Sudoeste 0 -- -- 42
2019-05-06 12:00:00 12.2 9 Sudoeste 18 Sudoeste 0 -- -- 47
2019-05-06 11:00:00 10.8 7 Sudoeste 17 Sur 0 -- -- 54
2019-05-06 10:00:00 9 8 Oeste 15 Oeste 0 -- -- 70
2019-05-06 09:00:00 7.5 10 Oeste 17 Sudoeste 0 -- -- 74
2019-05-06 08:00:00 5.2 8 Oeste 14 Oeste 0 -- -- 79
2019-05-06 07:00:00 3.1 6 Oeste 10 Oeste 0 -- -- 81
2019-05-06 06:00:00 -0.1 0 Calma 5 Noroeste 0 -- -- 82
2019-05-06 05:00:00 1 0 Calma 4 Noroeste 0 -- -- 73
2019-05-06 04:00:00 2.2 0 Calma 9 Noroeste 0 -- -- 69
2019-05-06 03:00:00 2.8 4 Noroeste 12 Noroeste 0 -- -- 74
2019-05-06 02:00:00 4.8 9 Noroeste 13 Noroeste 0 -- -- 72
2019-05-06 01:00:00 1.8 4 Noroeste 8 Noroeste 0 -- -- 81
2019-05-06 00:00:00 4.2 3 Noroeste 8 Sudoeste 0 -- -- 70
2019-05-05 23:00:00 5.8 3 Sudoeste 8 Sudoeste 0 -- -- 51
2019-05-05 22:00:00 8.7 7 Noroeste 17 Noroeste 0 -- -- 36
2019-05-05 21:00:00 11.2 3 Norte 13 Norte 0 -- -- 30
2019-05-05 20:00:00 14.6 4 Norte 18 Este 0 -- -- 25
2019-05-05 19:00:00 15.4 6 Norte 31 Nordeste 0 -- -- 21
2019-05-05 18:00:00 15.8 9 Nordeste 30 Este 0 -- -- 22
2019-05-05 17:00:00 16.7 5 Nordeste 24 Nordeste 0 -- -- 20
2019-05-05 16:00:00 16.3 8 Nordeste 25 Sudoeste 0 -- -- 20
2019-05-05 15:00:00 15.5 8 Noroeste 30 Oeste 0 -- -- 21
2019-05-05 14:00:00 14.5 13 Sudoeste 31 Sudoeste 0 -- -- 22
2019-05-05 13:00:00 13.5 15 Sudoeste 29 Sudoeste 0 -- -- 28
2019-05-05 12:00:00 12.9 18 Noroeste 30 Noroeste 0 -- -- 21
2019-05-05 11:00:00 12.2 9 Nordeste 27 Norte 0 -- -- 23
2019-05-05 10:00:00 11.2 6 Norte 17 Norte 0 -- -- 25
2019-05-05 09:00:00 8.9 10 Noroeste 23 Norte 0 -- -- 30
2019-05-05 08:00:00 6.2 13 Noroeste 21 Noroeste 0 -- -- 35
2019-05-05 07:00:00 5.4 6 Norte 28 Nordeste 0 -- -- 37
2019-05-05 06:00:00 5.4 4 Norte 27 Nordeste 0 -- -- 43
2019-05-05 05:00:00 7 15 Nordeste 27 Nordeste 0 -- -- 36
2019-05-05 04:00:00 7.6 8 Norte 23 Norte 0 -- -- 43
2019-05-05 03:00:00 7.7 8 Norte 20 Norte 0 -- -- 55
2019-05-05 02:00:00 7.9 0 Calma 14 Nordeste 0 -- -- 84
2019-05-05 01:00:00 9.3 6 Nordeste 13 Nordeste 0 -- -- 79
2019-05-05 00:00:00 10.2 6 Nordeste 12 Nordeste 0 -- -- 71
2019-05-04 23:00:00 10.5 7 Nordeste 18 Este 0 -- -- 71
2019-05-04 22:00:00 11 12 Nordeste 22 Este 0 -- -- 70
2019-05-04 21:00:00 13.1 3 Este 10 Sudoeste 0 -- -- 60
2019-05-04 20:00:00 15.6 9 Sudoeste 28 Sudoeste 0 -- -- 50
2019-05-04 19:00:00 15 4 Sur 9 Sudoeste 0 -- -- 61
2019-05-04 18:00:00 15.5 4 Sur 18 Sur 0 -- -- 59
2019-05-04 17:00:00 15.1 4 Sur 23 Sur 0 -- -- 61
2019-05-04 16:00:00 14.6 9 Sudoeste 23 Sur 0 -- -- 68
2019-05-04 15:00:00 13.9 8 Sudoeste 21 Sur 0 -- -- 65
2019-05-04 14:00:00 11.9 7 Sudoeste 21 Oeste 0 -- -- 75
2019-05-04 13:00:00 10.2 5 Sur 18 Sudoeste 0 -- -- 83
2019-05-04 12:00:00 8.6 5 Sur 13 Sur 0 -- -- 83
2019-05-04 11:00:00 7.3 6 Sudoeste 12 Oeste 0 -- -- 89
2019-05-04 10:00:00 6 5 Sudoeste 9 Sudoeste 0 -- -- 94
2019-05-04 09:00:00 5.3 2 Norte 9 Sudoeste 0 -- -- 97
2019-05-04 08:00:00 5 2 Sudoeste 6 Sur 0 -- -- 98
2019-05-04 07:00:00 5 2 Oeste 8 Sudoeste 0 -- -- 99
2019-05-04 06:00:00 5.5 4 Sur 8 Sur 0 -- -- 100
2019-05-04 05:00:00 5.5 3 Este 6 Sur 0 -- -- 100
2019-05-04 04:00:00 5.8 0 Calma 5 Este 0 -- -- 100
2019-05-04 03:00:00 5.8 0 Calma 8 Oeste 0 -- -- 100
2019-05-04 02:00:00 6.2 6 Oeste 9 Oeste 0 -- -- 100
2019-05-04 01:00:00 5.9 0 Calma 5 Sudoeste 0 -- -- 100
2019-05-04 00:00:00 5.5 0 Calma 6 Noroeste 0 -- -- 99
2019-05-03 23:00:00 6.6 2 Oeste 9 Noroeste 0 -- -- 98
2019-05-03 22:00:00 7.5 2 Sudoeste 6 Noroeste 0 -- -- 96
2019-05-03 21:00:00 8.2 2 Noroeste 5 Este 0 -- -- 94
2019-05-03 20:00:00 8.4 2 Sudeste 10 Este 0.2 -- -- 94
2019-05-03 19:00:00 8.5 4 Nordeste 8 Nordeste 0.6 -- -- 90
2019-05-03 18:00:00 8.2 3 Norte 10 Nordeste 2 -- -- 92
2019-05-03 17:00:00 9.2 0 Calma 6 Sur 0.2 -- -- 88
2019-05-03 16:00:00 9.2 2 Sudeste 8 Sur 0.4 -- -- 93
2019-05-03 15:00:00 9 4 Sur 13 Sur 1.8 -- -- 95
2019-05-03 14:00:00 9 3 Sur 10 Sudoeste 1.8 -- -- 95
2019-05-03 13:00:00 9.2 3 Sur 10 Sur 1.4 -- -- 94
2019-05-03 12:00:00 9.2 4 Sur 9 Sudeste 1.4 -- -- 96
2019-05-03 11:00:00 9.5 3 Sur 7 Sur 1.6 -- -- 95
2019-05-03 10:00:00 9.7 2 Este 9 Nordeste 0.8 -- -- 92
2019-05-03 09:00:00 10.1 3 Nordeste 7 Nordeste 0 -- -- 90
2019-05-03 08:00:00 8.6 0 Calma 5 Noroeste 0 -- -- 98
2019-05-03 07:00:00 8.3 2 Noroeste 5 Oeste 0.2 -- -- 96
2019-05-03 06:00:00 8.9 4 Noroeste 6 Noroeste 0 -- -- 96
2019-05-03 05:00:00 9 3 Noroeste 6 Norte 0 -- -- 96
2019-05-03 04:00:00 9 2 Norte 6 Nordeste 0.2 -- -- 95
2019-05-03 03:00:00 9.2 2 Este 6 Este 0 -- -- 95
2019-05-03 02:00:00 9.5 3 Este 7 Este 2 -- -- 95
2019-05-03 01:00:00 9.8 3 Este 8 Este 1.2 -- -- 96
2019-05-03 00:00:00 10.1 4 Este 11 Nordeste 0.6 -- -- 95
2019-05-02 23:00:00 10.2 6 Nordeste 12 Nordeste 0.6 -- -- 96
2019-05-02 22:00:00 10.3 5 Nordeste 11 Nordeste 0.4 -- -- 96
2019-05-02 21:00:00 10.2 5 Este 17 Este 1.8 -- -- 96
2019-05-02 20:00:00 10.6 4 Este 16 Este 5.2 -- -- 96
2019-05-02 19:00:00 11.6 6 Este 19 Nordeste 3.2 -- -- 93
2019-05-02 18:00:00 13.6 3 Este 15 Noroeste 0 -- -- 80
2019-05-02 17:00:00 15.6 6 Sudeste 20 Sur 0 -- -- 66
2019-05-02 16:00:00 16.1 6 Sur 18 Sur 0 -- -- 63
2019-05-02 15:00:00 18 8 Sur 25 Sudoeste 0 -- -- 53
2019-05-02 14:00:00 17.6 6 Sur 20 Sudoeste 0 -- -- 53
2019-05-02 13:00:00 16.8 6 Sur 15 Sur 0 -- -- 57
2019-05-02 12:00:00 17.3 4 Sudeste 13 Este 0 -- -- 61
2019-05-02 11:00:00 15.5 8 Este 15 Este 0 -- -- 75
2019-05-02 10:00:00 12.8 6 Nordeste 11 Nordeste 0 -- -- 87
2019-05-02 09:00:00 12 4 Norte 11 Noroeste 0 -- -- 92
2019-05-02 08:00:00 11.4 0 Calma 6 Este 0 -- -- 94
2019-05-02 07:00:00 11.2 2 Norte 6 Noroeste 0 -- -- 93
2019-05-02 06:00:00 11.8 0 Calma 13 Nordeste 0 -- -- 90
2019-05-02 05:00:00 12 6 Nordeste 18 Nordeste 0 -- -- 90
2019-05-02 04:00:00 12.1 6 Noroeste 15 Noroeste 0 -- -- 91
2019-05-02 03:00:00 12.7 0 Calma 4 Noroeste 0 -- -- 88
2019-05-02 02:00:00 12.9 3 Noroeste 13 Nordeste 0 -- -- 89
2019-05-02 01:00:00 13.1 3 Norte 10 Norte 0 -- -- 86
2019-05-02 00:00:00 13.4 5 Nordeste 15 Nordeste 0 -- -- 86
2019-05-01 23:00:00 14 0 Calma 9 Sur 0.4 -- -- 84
2019-05-01 22:00:00 15.3 5 Sudoeste 12 Sur 0 -- -- 69
2019-05-01 21:00:00 16.3 2 Sur 17 Sur 0 -- -- 65
2019-05-01 20:00:00 17.6 8 Sur 18 Sudoeste 0 -- -- 62
2019-05-01 19:00:00 19.4 7 Sur 21 Sudoeste 0 -- -- 56
2019-05-01 18:00:00 21 8 Sur 18 Sur 0 -- -- 49
2019-05-01 17:00:00 21.4 8 Sur 18 Sudoeste 0 -- -- 48
2019-05-01 16:00:00 20.8 9 Sudoeste 17 Sur 0 -- -- 50
2019-05-01 15:00:00 19.2 6 Sur 19 Sudoeste 0 -- -- 55
2019-05-01 14:00:00 18.6 5 Oeste 18 Sudoeste 0 -- -- 61
2019-05-01 13:00:00 17.8 6 Sudeste 13 Sur 0 -- -- 59
2019-05-01 12:00:00 17.1 4 Sur 15 Sur 0 -- -- 59
2019-05-01 11:00:00 14.9 3 Sudoeste 8 Sudoeste 0 -- -- 68
2019-05-01 10:00:00 11 3 Sudeste 6 Este 0 -- -- 100
2019-05-01 09:00:00 10.3 0 Calma 4 Sur 0 -- -- 100
2019-05-01 08:00:00 9.1 2 Sur 5 Noroeste 0 -- -- 99
2019-05-01 07:00:00 8.8 2 Noroeste 5 Noroeste 0 -- -- 97
2019-05-01 06:00:00 10 2 Noroeste 4 Norte 0 -- -- 97
2019-05-01 05:00:00 10.5 2 Noroeste 5 Noroeste 0 -- -- 97
2019-05-01 04:00:00 10.9 3 Noroeste 5 Noroeste 0 -- -- 97
2019-05-01 03:00:00 10.8 2 Noroeste 8 Oeste 0 -- -- 96
2019-05-01 02:00:00 11.2 5 Oeste 10 Oeste 0 -- -- 96
2019-05-01 01:00:00 11.1 3 Oeste 6 Oeste 0 -- -- 96
2019-05-01 00:00:00 11.6 3 Sur 8 Sur 0 -- -- 94
2019-04-30 23:00:00 12.3 4 Sur 9 Sur 0.2 -- -- 93
2019-04-30 22:00:00 13 2 Sur 11 Nordeste 0.4 -- -- 90
2019-04-30 21:00:00 13.4 6 Este 15 Este 0 -- -- 83
2019-04-30 20:00:00 15.6 3 Sur 11 Sur 0 -- -- 73
2019-04-30 19:00:00 17.6 4 Sudoeste 15 Sur 0 -- -- 63
2019-04-30 18:00:00 18.7 4 Sur 16 Sudoeste 0 -- -- 49
2019-04-30 17:00:00 20.2 6 Sur 19 Sur 0 -- -- 47
2019-04-30 16:00:00 19.8 6 Sur 19 Sudoeste 0 -- -- 48
2019-04-30 15:00:00 18.4 5 Sur 21 Sudoeste 0 -- -- 50
2019-04-30 14:00:00 17.2 5 Sur 18 Sudoeste 0 -- -- 54
2019-04-30 13:00:00 16.9 5 Sudeste 17 Sudoeste 0 -- -- 62
2019-04-30 12:00:00 15 4 Sur 13 Sur 0 -- -- 66
2019-04-30 11:00:00 14.4 4 Sudeste 12 Este 0 -- -- 79
2019-04-30 10:00:00 11.9 2 Sudeste 6 Este 0 -- -- 90
2019-04-30 09:00:00 10.9 2 Este 6 Este 0 -- -- 94
2019-04-30 08:00:00 8.9 0 Calma 4 Noroeste 0 -- -- 99
2019-04-30 07:00:00 8.6 3 Noroeste 6 Sur 0 -- -- 96
2019-04-30 06:00:00 9.4 0 Calma 5 Noroeste 0 -- -- 96
2019-04-30 05:00:00 10.1 2 Noroeste 5 Sur 0 -- -- 95
2019-04-30 04:00:00 10.2 0 Calma 6 Noroeste 0.2 -- -- 95
2019-04-30 03:00:00 10.3 4 Noroeste 5 Noroeste 0 -- -- 93
2019-04-30 02:00:00 10.6 0 Calma 11 Nordeste 0.2 -- -- 91
2019-04-30 01:00:00 11.1 5 Nordeste 13 Nordeste 0 -- -- 89
2019-04-30 00:00:00 11 5 Nordeste 14 Este 0 -- -- 93
2019-04-29 23:00:00 11.2 3 Sudeste 10 Este 0.2 -- -- 90
2019-04-29 22:00:00 11.4 6 Nordeste 14 Este 2.4 -- -- 90
2019-04-29 21:00:00 12.9 10 Este 21 Este 0.4 -- -- 77
2019-04-29 20:00:00 14.6 0 Calma 6 Sudoeste 0 -- -- 69
2019-04-29 19:00:00 15.1 4 Sudoeste 13 Sur 0 -- -- 67
2019-04-29 18:00:00 15.4 5 Sur 16 Sudoeste 0 -- -- 66
2019-04-29 17:00:00 15.2 5 Sur 15 Sudoeste 0 -- -- 66
2019-04-29 16:00:00 14.8 8 Sur 14 Sudoeste 0 -- -- 66
2019-04-29 15:00:00 14.5 5 Sur 17 Sur 0 -- -- 66
2019-04-29 14:00:00 14.4 7 Sur 19 Sur 0 -- -- 67
2019-04-29 13:00:00 13.1 7 Sudoeste 15 Sur 0 -- -- 71
2019-04-29 12:00:00 12.1 5 Sur 17 Sur 0 -- -- 77
2019-04-29 11:00:00 11.3 5 Sur 13 Sur 0 -- -- 86
2019-04-29 10:00:00 9.8 5 Sur 13 Sudoeste 0 -- -- 92
2019-04-29 09:00:00 9.5 5 Sur 9 Sur 0 -- -- 94
2019-04-29 08:00:00 9 5 Sur 9 Sur 0 -- -- 96
2019-04-29 07:00:00 9 3 Sur 8 Sur 0 -- -- 94
2019-04-29 06:00:00 9 3 Sur 6 Sudoeste 0 -- -- 94
2019-04-29 05:00:00 9.2 2 Sur 8 Sur 0 -- -- 95
2019-04-29 04:00:00 9.2 3 Sur 6 Sudoeste 0 -- -- 95
2019-04-29 03:00:00 9.1 4 Sudoeste 9 Sudoeste 0 -- -- 95
2019-04-29 02:00:00 9.2 5 Sudoeste 9 Oeste 0 -- -- 92
2019-04-29 01:00:00 9.3 4 Sudoeste 10 Sudoeste 0 -- -- 92
2019-04-29 00:00:00 9.4 6 Sudoeste 9 Sudoeste 0 -- -- 91
2019-04-28 23:00:00 10 3 Sur 8 Sur 0 -- -- 89
2019-04-28 22:00:00 10.2 5 Sur 14 Sur 0 -- -- 87
2019-04-28 21:00:00 11.1 7 Sur 13 Sur 0 -- -- 83
2019-04-28 20:00:00 14.1 4 Sur 21 Sur 0 -- -- 71
2019-04-28 19:00:00 16.1 9 Sur 22 Sur 0 -- -- 65
2019-04-28 18:00:00 17.2 9 Sur 28 Sur 0 -- -- 62
2019-04-28 17:00:00 18.2 18 Oeste 31 Sur 0 -- -- 47
2019-04-28 16:00:00 18.2 7 Sur 27 Sur 0 -- -- 52
2019-04-28 15:00:00 17.3 8 Sur 28 Sur 0 -- -- 55
2019-04-28 14:00:00 16.1 8 Sudoeste 19 Sur 0 -- -- 55
2019-04-28 13:00:00 14.5 9 Sudoeste 19 Sudoeste 0 -- -- 61
2019-04-28 12:00:00 13.9 7 Sur 14 Sudoeste 0 -- -- 63
2019-04-28 11:00:00 12.4 4 Sur 11 Sur 0 -- -- 64
2019-04-28 10:00:00 10.4 3 Sur 8 Este 0 -- -- 73
2019-04-28 09:00:00 7.7 3 Este 5 Este 0 -- -- 91
2019-04-28 08:00:00 5.5 0 Calma 4 Noroeste 0 -- -- 99
2019-04-28 07:00:00 4.8 0 Calma 4 Norte 0 -- -- 97
2019-04-28 06:00:00 5.2 2 Norte 4 Noroeste 0 -- -- 97
2019-04-28 05:00:00 5.3 0 Calma 5 Noroeste 0 -- -- 96
2019-04-28 04:00:00 5.7 4 Noroeste 5 Noroeste 0 -- -- 96
2019-04-28 03:00:00 6.4 3 Norte 6 Noroeste 0 -- -- 94
2019-04-28 02:00:00 7.8 4 Noroeste 9 Este 0 -- -- 89
2019-04-28 01:00:00 11.4 4 Nordeste 10 Nordeste 0 -- -- 82
2019-04-28 00:00:00 11.9 5 Nordeste 12 Nordeste 0 -- -- 82
2019-04-27 23:00:00 12.5 5 Nordeste 14 Nordeste 0 -- -- 78
2019-04-27 22:00:00 13.4 8 Nordeste 14 Nordeste 0 -- -- 70
2019-04-27 21:00:00 14.2 2 Sur 15 Sudeste 0 -- -- 65
2019-04-27 20:00:00 16.6 6 Sur 22 Sur 0 -- -- 54
2019-04-27 19:00:00 18.1 10 Sur 23 Sur 0 -- -- 46
2019-04-27 18:00:00 18.8 12 Sur 28 Sur 0 -- -- 40
2019-04-27 17:00:00 18.5 12 Sudoeste 29 Sur 0 -- -- 43
2019-04-27 16:00:00 18 9 Sur 21 Sur 0 -- -- 52
2019-04-27 15:00:00 16.6 6 Sudoeste 19 Oeste 0 -- -- 56
2019-04-27 14:00:00 16.1 5 Sur 18 Noroeste 0 -- -- 57
2019-04-27 13:00:00 14.4 6 Sudoeste 16 Sur 0 -- -- 59
2019-04-27 12:00:00 13.5 4 Sur 18 Sudoeste 0 -- -- 67
2019-04-27 11:00:00 12.5 5 Sur 13 Sudoeste 0 -- -- 67
2019-04-27 10:00:00 12 4 Este 9 Sudeste 0 -- -- 67
2019-04-27 09:00:00 10 4 Este 9 Nordeste 0 -- -- 74
2019-04-27 08:00:00 4.5 0 Calma 6 Norte 0 -- -- 99
2019-04-27 07:00:00 2.9 3 Noroeste 6 Noroeste 0 -- -- 96
2019-04-27 06:00:00 3.2 4 Noroeste 6 Noroeste 0 -- -- 95
2019-04-27 05:00:00 4.1 4 Noroeste 6 Noroeste 0 -- -- 93
2019-04-27 04:00:00 5.5 3 Norte 5 Nordeste 0 -- -- 91
2019-04-27 03:00:00 8 2 Nordeste 9 Nordeste 0 -- -- 86
2019-04-27 02:00:00 8.6 4 Nordeste 10 Nordeste 0 -- -- 84
2019-04-27 01:00:00 9.2 7 Nordeste 14 Nordeste 0 -- -- 85
2019-04-27 00:00:00 9.5 8 Nordeste 17 Norte 0 -- -- 84
2019-04-26 23:00:00 9.7 8 Nordeste 18 Este 0 -- -- 84
2019-04-26 22:00:00 10.7 9 Nordeste 18 Este 0 -- -- 80
2019-04-26 21:00:00 12 10 Este 18 Este 0 -- -- 73
2019-04-26 20:00:00 15.4 7 Sudoeste 30 Oeste 0 -- -- 50
2019-04-26 19:00:00 15.5 20 Sudoeste 37 Oeste 0 -- -- 51
2019-04-26 18:00:00 16.5 18 Sudoeste 34 Sudoeste 0 -- -- 50
2019-04-26 17:00:00 17.2 17 Sudoeste 35 Sur 0 -- -- 52
2019-04-26 16:00:00 16.9 8 Sudoeste 28 Oeste 0 -- -- 47
2019-04-26 15:00:00 16.3 13 Sudoeste 26 Sudoeste 0 -- -- 52
2019-04-26 14:00:00 14.6 9 Sudoeste 26 Sudoeste 0 -- -- 56
2019-04-26 13:00:00 14.4 9 Sur 22 Sudoeste 0 -- -- 55
2019-04-26 12:00:00 12.4 9 Sudoeste 20 Sudoeste 0 -- -- 65
2019-04-26 11:00:00 10.9 3 Este 14 Sudoeste 0 -- -- 80
2019-04-26 10:00:00 8.5 6 Oeste 17 Oeste 0 -- -- 81
2019-04-26 09:00:00 6.4 4 Sur 10 Nordeste 0 -- -- 90
2019-04-26 08:00:00 3.5 0 Calma 10 Este 0 -- -- 99
2019-04-26 07:00:00 1.6 0 Calma 5 Noroeste 0 -- -- 98
2019-04-26 06:00:00 2.1 0 Calma 5 Norte 0 -- -- 95
2019-04-26 05:00:00 4.1 3 Noroeste 12 Sudoeste 0 -- -- 92
2019-04-26 04:00:00 3.4 3 Oeste 6 Sudoeste 0 -- -- 98
2019-04-26 03:00:00 3.3 3 Noroeste 5 Noroeste 0 -- -- 94
2019-04-26 02:00:00 4.9 2 Sur 8 Oeste 0 -- -- 92
2019-04-26 01:00:00 4.3 3 Oeste 8 Noroeste 0 -- -- 98
2019-04-26 00:00:00 5 2 Sur 5 Norte 0 -- -- 97
2019-04-25 23:00:00 6.6 2 Sudeste 4 Este 0 -- -- 97
2019-04-25 22:00:00 7.3 0 Calma 5 Noroeste 0 -- -- 97
2019-04-25 21:00:00 7.9 3 Sudoeste 5 Oeste 0 -- -- 93
2019-04-25 20:00:00 8.8 2 Sudeste 38 Oeste 2.2 -- -- 92
2019-04-25 19:00:00 10.2 3 Sudoeste 18 Sur 0.6 -- -- 90
2019-04-25 18:00:00 10.5 4 Sur 18 Sudoeste 0.6 -- -- 90
2019-04-25 17:00:00 10.8 10 Oeste 22 Sudoeste 1 -- -- 88
2019-04-25 16:00:00 12.6 3 Noroeste 11 Este 0 -- -- 78
2019-04-25 15:00:00 10.3 3 Norte 10 Sur 0.2 -- -- 88
2019-04-25 14:00:00 8.9 3 Sur 13 Sudoeste 1.4 -- -- 91
2019-04-25 13:00:00 8.6 8 Oeste 26 Oeste 0.6 -- -- 89
2019-04-25 12:00:00 9.6 14 Oeste 33 Sudoeste 0.4 -- -- 89
2019-04-25 11:00:00 10.1 15 Sudoeste 34 Sudoeste 0.2 -- -- 85
2019-04-25 10:00:00 10.1 19 Sudoeste 43 Sudoeste 1.8 -- -- 97
2019-04-25 09:00:00 10.2 13 Sur 28 Sur 0.2 -- -- 99
2019-04-25 08:00:00 9.8 9 Sur 24 Sudoeste 1 -- -- 99
2019-04-25 07:00:00 9.7 7 Sur 18 Sudoeste 0 -- -- 99
2019-04-25 06:00:00 9.7 8 Sur 22 Sur 0 -- -- 99
2019-04-25 05:00:00 9.4 5 Sur 12 Sur 0.2 -- -- 98
2019-04-25 04:00:00 9.2 3 Sur 10 Sudeste 0.4 -- -- 96
2019-04-25 03:00:00 8.9 0 Calma 9 Sur 0.8 -- -- 94
2019-04-25 02:00:00 8.9 3 Sur 11 Sudoeste 0.2 -- -- 91
2019-04-25 01:00:00 9.1 4 Sur 14 Sudoeste 0 -- -- 83
2019-04-25 00:00:00 9.5 6 Sur 17 Sur 0 -- -- 74
2019-04-24 23:00:00 9.9 2 Sur 9 Sur 0 -- -- 70
2019-04-24 22:00:00 10 5 Sur 13 Sur 0 -- -- 69
2019-04-24 21:00:00 10.3 5 Sur 23 Sudoeste 0 -- -- 65
2019-04-24 20:00:00 11.4 9 Sur 30 Sudoeste 0 -- -- 59
2019-04-24 19:00:00 12.1 14 Sur 30 Sur 0 -- -- 60
2019-04-24 18:00:00 13.7 19 Oeste 29 Oeste 0 -- -- 58
2019-04-24 17:00:00 13.5 19 Sudoeste 32 Sudoeste 0 -- -- 56
2019-04-24 16:00:00 11.8 14 Sur 29 Oeste 0 -- -- 59
2019-04-24 15:00:00 13 14 Sudoeste 36 Oeste 0 -- -- 53
2019-04-24 14:00:00 12.8 17 Sudoeste 35 Oeste 0 -- -- 57
2019-04-24 13:00:00 11 19 Sudoeste 31 Oeste 0 -- -- 65
2019-04-24 12:00:00 10.4 17 Sudoeste 31 Sudoeste 0 -- -- 66
2019-04-24 11:00:00 9.3 16 Sudoeste 27 Sudoeste 0 -- -- 76
2019-04-24 10:00:00 8.8 14 Sudoeste 25 Sur 0 -- -- 82
2019-04-24 09:00:00 7.5 7 Sur 15 Sudoeste 0 -- -- 90
2019-04-24 08:00:00 6.8 4 Sur 7 Sur 0 -- -- 93
2019-04-24 07:00:00 6 2 Sudoeste 7 Sudoeste 0 -- -- 95
2019-04-24 06:00:00 6.9 5 Sudoeste 16 Sudoeste 0 -- -- 92
2019-04-24 05:00:00 7.4 9 Oeste 27 Sudoeste 1.8 -- -- 92
2019-04-24 04:00:00 9.5 7 Sur 15 Sudoeste 0 -- -- 92
2019-04-24 03:00:00 9.9 2 Sur 13 Sur 0 -- -- 86
2019-04-24 02:00:00 10.1 3 Sur 7 Sudeste 0 -- -- 88
2019-04-24 01:00:00 10.2 0 Calma 5 Noroeste 0 -- -- 90
2019-04-24 00:00:00 10.6 0 Calma 5 Sudoeste 0 -- -- 89